Terminal Aerodrome Forecast
Issued by NWS Charleston, WV

Current Version | Previous Version | Graphics & Text | Print | Product List | Glossary On
Versions: 1 2 3 4 5 6 7 8 9 10 11 12 13 14 15 16 17 18 19 20 21 22 23 24 25 26
000
FTUS41 KRLX 052337
TAFEKN
TAF
KEKN 052337Z 0600/0624 15003KT 2SM SHRA VCTS SCT015 BKN040CB
     FM060015 15003KT 5SM -SHRA VCTS OVC030CB
     FM060300 00000KT 4SM TSRA BR OVC030CB
     FM060500 00000KT 4SM SHRA BR OVC150
     FM060600 00000KT 1SM BR SCT001 BKN010
     FM061500 00000KT 5SM SHRA VCTS BKN025CB
     FM061700 00000KT P6SM TSRA BKN035CB
     FM062000 28004KT P6SM VCTS BKN025CB=

USA.gov is the U.S. government's official web portal to all federal, state and local government web resources and services.